Time;durP1;ratioP1;P1;durP2;ratioP2;P2;SDS_P1;SDS_P2;PMS_P1;PMS_P2;Temp;Humidity;BMP_temperature;BMP_pressure;BME280_temperature;BME280_humidity;BME280_pressure;Samples;Min_cycle;Max_cycle;Signal;HPM_P1;HPM_P2
2023/06/24 00:00:23;;;;;;;17.00;11.70;;;17.90;99.90;;;;;;4979574;28;20441;-75
2023/06/24 00:02:53;;;;;;;13.70;12.43;;;17.80;99.90;;;;;;4983821;28;20471;-73
2023/06/24 00:05:21;;;;;;;19.13;15.07;;;17.70;99.90;;;;;;4985945;28;20434;-73
2023/06/24 00:07:48;;;;;;;14.90;13.30;;;17.70;99.90;;;;;;4980336;28;20465;-72
2023/06/24 00:10:17;;;;;;;14.23;12.83;;;17.70;99.90;;;;;;4976295;28;20445;-73
2023/06/24 00:12:44;;;;;;;13.73;12.13;;;17.60;99.90;;;;;;4975301;28;21087;-74
2023/06/24 00:15:11;;;;;;;13.17;11.97;;;17.50;99.90;;;;;;4979311;28;20440;-74
2023/06/24 00:17:39;;;;;;;13.77;12.30;;;17.50;99.90;;;;;;4975035;28;20546;-74
2023/06/24 00:20:08;;;;;;;15.30;12.30;;;17.50;99.90;;;;;;4979523;28;20437;-73
2023/06/24 00:22:35;;;;;;;16.70;14.47;;;17.40;99.90;;;;;;4980581;28;20472;-72
2023/06/24 00:25:02;;;;;;;13.50;12.27;;;17.40;99.90;;;;;;4981003;28;20503;-72
2023/06/24 00:27:30;;;;;;;14.70;13.10;;;17.50;99.90;;;;;;4979083;28;20837;-72
2023/06/24 00:29:57;;;;;;;16.27;14.67;;;17.40;99.90;;;;;;4978245;28;20445;-72
2023/06/24 00:32:24;;;;;;;16.60;14.53;;;17.30;99.90;;;;;;4976460;28;20997;-73
2023/06/24 00:34:51;;;;;;;17.17;13.93;;;17.30;99.90;;;;;;4982207;28;20459;-73
2023/06/24 00:37:18;;;;;;;15.20;12.00;;;17.20;99.90;;;;;;4983521;28;20523;-72
2023/06/24 00:39:45;;;;;;;14.33;12.90;;;17.20;99.90;;;;;;4986115;28;20456;-72
2023/06/24 00:42:12;;;;;;;19.90;14.30;;;17.20;99.90;;;;;;4984441;28;20480;-73
2023/06/24 00:44:40;;;;;;;15.37;13.60;;;17.20;99.90;;;;;;4991510;28;20257;-72
2023/06/24 00:47:09;;;;;;;17.40;15.40;;;17.20;99.90;;;;;;4992814;28;20546;-73
2023/06/24 00:49:36;;;;;;;17.27;14.18;;;17.10;99.90;;;;;;4982277;28;20457;-73
2023/06/24 00:52:03;;;;;;;15.67;14.07;;;17.10;99.90;;;;;;4979947;28;20242;-73
2023/06/24 00:54:31;;;;;;;16.53;13.53;;;17.10;99.90;;;;;;4977190;28;20788;-72
2023/06/24 00:57:00;;;;;;;17.43;13.50;;;17.10;99.90;;;;;;4979846;28;20456;-72
2023/06/24 00:59:30;;;;;;;18.37;15.73;;;17.10;99.90;;;;;;4985008;28;20440;-72
2023/06/24 01:02:01;;;;;;;19.70;15.93;;;17.00;99.90;;;;;;4984405;28;20992;-75
2023/06/24 01:04:29;;;;;;;17.63;14.70;;;17.00;99.90;;;;;;4987544;28;20469;-72
2023/06/24 01:06:57;;;;;;;20.03;15.37;;;17.00;99.90;;;;;;4991704;28;20534;-73
2023/06/24 01:09:24;;;;;;;26.40;15.10;;;17.00;99.90;;;;;;4994082;28;20471;-72
2023/06/24 01:11:52;;;;;;;16.10;14.23;;;17.00;99.90;;;;;;4995725;28;20866;-73
2023/06/24 01:14:22;;;;;;;21.10;14.07;;;17.00;99.90;;;;;;5001405;28;20507;-73
2023/06/24 01:16:56;;;;;;;16.23;14.43;;;17.00;99.90;;;;;;4994910;28;20467;-70
2023/06/24 01:19:48;;;;;;;16.50;14.70;;;17.10;99.90;;;;;;5005385;28;20448;-72
2023/06/24 01:22:29;;;;;;;18.95;15.15;;;16.90;99.90;;;;;;4989480;28;20568;-72
2023/06/24 01:25:09;;;;;;;18.05;14.07;;;16.90;99.90;;;;;;4984887;28;20217;-73
2023/06/24 01:28:12;;;;;;;27.60;15.27;;;16.90;99.90;;;;;;4983236;28;20208;-71
2023/06/24 01:31:04;;;;;;;18.58;15.00;;;16.90;99.90;;;;;;4976019;28;20269;-72
2023/06/24 01:33:39;;;;;;;22.20;16.95;;;16.90;99.90;;;;;;4969534;28;20763;-73
2023/06/24 01:36:12;;;;;;;19.40;15.48;;;16.80;99.90;;;;;;4985940;28;20208;-73
2023/06/24 01:38:47;;;;;;;17.03;14.50;;;16.80;99.90;;;;;;4984166;28;20647;-74
2023/06/24 01:41:16;;;;;;;18.00;16.20;;;16.80;99.90;;;;;;4983634;28;20529;-73
2023/06/24 01:43:44;;;;;;;24.07;17.87;;;16.80;99.90;;;;;;4985511;28;20259;-75
2023/06/24 01:46:13;;;;;;;18.53;16.33;;;16.80;99.90;;;;;;4980280;28;20550;-73
2023/06/24 01:48:45;;;;;;;23.57;16.47;;;16.80;99.90;;;;;;4983999;28;20529;-74
2023/06/24 01:51:15;;;;;;;20.83;17.07;;;16.70;99.90;;;;;;4983082;28;20487;-72
2023/06/24 01:53:45;;;;;;;18.83;16.00;;;16.70;99.90;;;;;;4984846;28;20465;-74
2023/06/24 01:56:15;;;;;;;19.05;17.05;;;16.70;99.90;;;;;;4982851;28;20825;-73
2023/06/24 01:58:44;;;;;;;19.77;17.50;;;16.70;99.90;;;;;;4988190;28;20208;-74
2023/06/24 02:01:12;;;;;;;20.00;17.20;;;16.70;99.90;;;;;;4984755;28;20244;-73
2023/06/24 02:03:42;;;;;;;18.73;16.85;;;16.70;99.90;;;;;;4983623;28;20471;-74
2023/06/24 02:06:10;;;;;;;18.40;15.43;;;16.70;99.90;;;;;;4982676;28;20204;-73
2023/06/24 02:08:41;;;;;;;22.42;16.40;;;16.60;99.90;;;;;;4983892;28;20212;-74
2023/06/24 02:11:09;;;;;;;17.10;15.40;;;16.60;99.90;;;;;;4985436;28;20290;-73
2023/06/24 02:13:38;;;;;;;18.83;15.60;;;16.60;99.90;;;;;;4981914;28;20475;-73
2023/06/24 02:16:07;;;;;;;20.67;15.88;;;16.60;99.90;;;;;;4977912;28;20454;-73
2023/06/24 02:18:36;;;;;;;26.43;17.90;;;16.50;99.90;;;;;;4985947;28;20202;-72
2023/06/24 02:21:05;;;;;;;20.43;17.37;;;16.50;99.90;;;;;;4974311;28;20459;-73
2023/06/24 02:23:34;;;;;;;25.17;18.83;;;16.60;99.90;;;;;;4984613;28;20775;-72
2023/06/24 02:26:02;;;;;;;23.27;18.83;;;16.60;99.90;;;;;;4981524;28;20454;-73
2023/06/24 02:28:30;;;;;;;19.40;16.60;;;16.50;99.90;;;;;;4977744;28;20491;-73
2023/06/24 02:30:59;;;;;;;21.92;19.27;;;16.50;99.90;;;;;;4980518;28;20444;-73
2023/06/24 02:33:26;;;;;;;24.60;17.80;;;16.60;99.90;;;;;;4975585;28;20232;-72
2023/06/24 02:35:53;;;;;;;22.55;17.20;;;16.50;99.90;;;;;;4984063;28;20214;-72
2023/06/24 02:38:21;;;;;;;22.75;17.23;;;16.50;99.90;;;;;;4979942;28;20207;-73
2023/06/24 02:40:49;;;;;;;19.58;17.58;;;16.50;99.90;;;;;;4981817;28;20555;-72
2023/06/24 02:43:17;;;;;;;24.52;18.58;;;16.50;99.90;;;;;;4984569;28;20758;-71
2023/06/24 02:45:45;;;;;;;21.48;18.02;;;16.50;99.90;;;;;;4986228;28;20298;-72
2023/06/24 02:48:13;;;;;;;21.90;19.45;;;16.40;99.90;;;;;;4981097;28;20211;-73
2023/06/24 02:50:43;;;;;;;20.50;18.38;;;16.40;99.90;;;;;;4977630;28;20220;-73
2023/06/24 02:53:11;;;;;;;30.27;21.83;;;16.40;99.90;;;;;;4983584;28;20223;-73
2023/06/24 02:55:42;;;;;;;26.05;19.38;;;16.40;99.90;;;;;;4983773;28;20215;-72
2023/06/24 02:58:09;;;;;;;24.65;19.20;;;16.30;99.90;;;;;;4982909;28;20217;-72
2023/06/24 03:00:36;;;;;;;24.03;21.17;;;16.30;99.90;;;;;;4977531;28;20214;-73
2023/06/24 03:03:05;;;;;;;24.05;20.73;;;16.30;99.90;;;;;;4984719;28;20471;-73
2023/06/24 03:05:33;;;;;;;24.88;19.80;;;16.30;99.90;;;;;;4979725;28;20199;-73
2023/06/24 03:08:02;;;;;;;28.63;21.50;;;16.30;99.90;;;;;;4985092;28;20565;-72
2023/06/24 03:10:29;;;;;;;21.58;19.48;;;16.30;99.90;;;;;;4981355;28;20207;-72
2023/06/24 03:12:57;;;;;;;22.95;18.60;;;16.30;99.90;;;;;;4982434;28;20310;-72
2023/06/24 03:15:24;;;;;;;19.98;16.60;;;16.40;99.90;;;;;;4977478;28;20199;-72
2023/06/24 03:17:52;;;;;;;20.75;18.55;;;16.40;99.90;;;;;;4981622;28;20220;-72
2023/06/24 03:20:20;;;;;;;23.67;20.25;;;16.40;99.90;;;;;;4981716;28;20209;-73
2023/06/24 03:22:46;;;;;;;21.75;19.55;;;16.30;99.90;;;;;;4981760;28;20345;-73
2023/06/24 03:25:13;;;;;;;23.90;17.40;;;16.30;99.90;;;;;;4986278;28;20229;-71
2023/06/24 03:27:40;;;;;;;21.85;19.67;;;16.30;99.90;;;;;;4977088;28;20213;-71
2023/06/24 03:30:12;;;;;;;25.35;19.25;;;16.20;99.90;;;;;;4976568;28;20278;-73
2023/06/24 03:32:39;;;;;;;21.20;17.00;;;16.20;99.90;;;;;;4983263;28;20335;-72
2023/06/24 03:35:07;;;;;;;21.65;17.25;;;16.30;99.90;;;;;;4979142;28;20291;-72
2023/06/24 03:37:33;;;;;;;21.92;18.02;;;16.20;99.90;;;;;;4980860;28;20208;-72
2023/06/24 03:40:00;;;;;;;22.17;18.45;;;16.30;99.90;;;;;;4985211;28;20203;-72
2023/06/24 03:42:28;;;;;;;24.33;19.55;;;16.30;99.90;;;;;;4970105;28;20700;-73
2023/06/24 03:44:55;;;;;;;22.58;19.70;;;16.30;99.90;;;;;;4977834;28;20293;-73
2023/06/24 03:47:23;;;;;;;24.98;17.27;;;16.40;99.90;;;;;;4979211;28;20680;-74
2023/06/24 03:49:50;;;;;;;20.92;18.25;;;16.50;99.90;;;;;;4974666;28;20739;-72
2023/06/24 03:52:18;;;;;;;19.83;17.73;;;16.50;99.90;;;;;;4984098;28;20231;-72
2023/06/24 03:54:46;;;;;;;19.70;17.70;;;16.50;99.90;;;;;;4979024;28;20468;-72
2023/06/24 03:57:13;;;;;;;20.47;18.47;;;16.50;99.90;;;;;;4985026;28;20218;-72
2023/06/24 03:59:40;;;;;;;22.92;19.83;;;16.60;99.90;;;;;;4978537;28;20453;-72
2023/06/24 04:02:07;;;;;;;25.20;20.97;;;16.60;99.90;;;;;;4981336;28;20570;-71
2023/06/24 04:04:36;;;;;;;21.85;19.40;;;16.60;99.90;;;;;;4980697;28;20815;-71
2023/06/24 04:07:03;;;;;;;20.27;18.08;;;16.70;99.90;;;;;;4979057;28;20212;-72
2023/06/24 04:09:30;;;;;;;25.38;18.90;;;16.80;99.90;;;;;;4979793;28;20644;-73
2023/06/24 04:11:57;;;;;;;24.92;19.75;;;16.80;99.90;;;;;;4982208;28;20208;-71
2023/06/24 04:14:24;;;;;;;23.07;18.40;;;16.90;99.90;;;;;;4979239;28;20324;-73
2023/06/24 04:16:51;;;;;;;20.20;17.53;;;17.00;99.90;;;;;;4977211;28;20460;-72
2023/06/24 04:19:18;;;;;;;23.40;20.10;;;17.20;99.90;;;;;;4980799;28;20446;-71
2023/06/24 04:21:46;;;;;;;19.33;17.33;;;17.70;99.90;;;;;;4985671;28;20529;-71
2023/06/24 04:24:13;;;;;;;19.70;17.60;;;18.00;99.90;;;;;;4998782;28;20514;-71
2023/06/24 04:26:40;;;;;;;18.07;15.50;;;18.50;99.90;;;;;;4979903;28;20489;-72
2023/06/24 04:29:07;;;;;;;18.13;15.30;;;19.20;99.90;;;;;;4976112;28;20943;-72
2023/06/24 04:31:34;;;;;;;16.67;14.77;;;19.80;99.90;;;;;;4981545;28;20455;-72
2023/06/24 04:34:01;;;;;;;17.07;15.30;;;20.40;99.90;;;;;;4980638;28;20498;-72
2023/06/24 04:36:27;;;;;;;17.53;15.47;;;20.70;99.90;;;;;;4980035;28;20464;-72
2023/06/24 04:38:56;;;;;;;15.30;13.90;;;21.10;99.90;;;;;;4983262;28;20470;-71
2023/06/24 04:41:23;;;;;;;16.83;14.60;;;21.50;99.90;;;;;;4983867;28;20448;-73
2023/06/24 04:43:50;;;;;;;14.10;12.50;;;21.60;99.90;;;;;;4978305;28;20472;-72
2023/06/24 04:46:17;;;;;;;14.30;12.80;;;21.90;99.90;;;;;;4983319;28;20455;-72
2023/06/24 04:48:44;;;;;;;16.00;14.27;;;22.30;99.90;;;;;;4983586;28;20463;-72
2023/06/24 04:51:11;;;;;;;15.90;12.93;;;22.80;99.90;;;;;;4975562;28;20983;-71
2023/06/24 04:53:37;;;;;;;12.97;11.47;;;23.50;99.90;;;;;;4979109;28;20588;-71
2023/06/24 04:56:06;;;;;;;15.47;13.77;;;23.90;99.90;;;;;;4978085;28;20445;-70
2023/06/24 04:58:33;;;;;;;13.90;12.53;;;24.10;99.90;;;;;;4981209;28;20979;-71
2023/06/24 05:00:59;;;;;;;10.90;9.80;;;24.40;99.90;;;;;;4981032;28;20524;-70
2023/06/24 05:03:26;;;;;;;14.17;12.80;;;25.20;99.90;;;;;;4979256;28;20473;-70
2023/06/24 05:05:53;;;;;;;14.30;12.50;;;25.60;99.90;;;;;;4981063;28;20485;-71
2023/06/24 05:08:20;;;;;;;13.57;12.17;;;26.00;99.90;;;;;;4981820;28;20438;-71
2023/06/24 05:10:47;;;;;;;18.33;12.80;;;26.30;99.90;;;;;;4975279;28;20453;-70
2023/06/24 05:13:15;;;;;;;12.63;11.40;;;26.90;99.10;;;;;;4979825;28;20596;-72
2023/06/24 05:15:42;;;;;;;12.60;11.33;;;27.40;96.80;;;;;;4984797;28;20947;-70
2023/06/24 05:18:09;;;;;;;11.97;10.43;;;27.80;95.20;;;;;;4982934;28;20834;-71
2023/06/24 05:20:36;;;;;;;15.90;12.00;;;27.90;94.30;;;;;;4985546;28;20449;-72
2023/06/24 05:23:03;;;;;;;14.57;10.83;;;27.50;94.50;;;;;;4976885;28;20496;-70
2023/06/24 05:25:29;;;;;;;13.40;12.03;;;27.90;94.00;;;;;;4986052;28;20527;-71
2023/06/24 05:27:56;;;;;;;14.27;12.70;;;27.90;93.60;;;;;;4986326;28;20456;-72
2023/06/24 05:30:25;;;;;;;20.40;12.80;;;27.00;93.50;;;;;;4988210;28;20509;-73
2023/06/24 05:32:51;;;;;;;11.83;10.83;;;27.00;94.60;;;;;;5002360;28;20539;-71
2023/06/24 05:35:18;;;;;;;19.97;14.00;;;27.10;94.60;;;;;;4997700;28;20462;-70
2023/06/24 05:37:45;;;;;;;12.27;11.20;;;27.60;93.90;;;;;;4995392;28;20532;-71
2023/06/24 05:40:19;;;;;;;11.90;10.70;;;27.70;93.40;;;;;;5004909;28;20455;-70
2023/06/24 05:42:46;;;;;;;12.67;10.20;;;28.20;92.90;;;;;;4990393;28;20469;-71
2023/06/24 05:45:13;;;;;;;10.23;8.97;;;28.80;92.20;;;;;;4980557;28;20450;-73
2023/06/24 05:47:43;;;;;;;10.60;9.70;;;28.60;91.70;;;;;;4983666;28;20825;-70
2023/06/24 05:50:11;;;;;;;14.83;10.43;;;29.20;91.20;;;;;;4976795;28;20532;-71
2023/06/24 05:52:38;;;;;;;10.17;9.23;;;29.80;90.50;;;;;;4985427;28;20500;-71
2023/06/24 05:55:06;;;;;;;8.97;7.03;;;30.00;88.90;;;;;;4986681;28;20453;-70
2023/06/24 05:57:32;;;;;;;10.20;8.80;;;30.20;88.70;;;;;;4985920;28;20437;-71
2023/06/24 06:00:00;;;;;;;8.70;7.10;;;30.00;88.10;;;;;;4985354;28;20986;-69
2023/06/24 06:02:26;;;;;;;9.20;8.40;;;29.50;88.70;;;;;;4985741;28;20554;-71
2023/06/24 06:04:55;;;;;;;10.70;9.73;;;29.40;89.60;;;;;;4981506;28;20438;-71
2023/06/24 06:07:21;;;;;;;8.47;7.67;;;29.30;89.40;;;;;;4977034;28;20450;-72
2023/06/24 06:09:48;;;;;;;10.03;8.63;;;29.60;89.90;;;;;;4984476;28;20457;-73
2023/06/24 06:12:15;;;;;;;8.63;7.57;;;29.50;89.30;;;;;;4986342;28;20539;-72
2023/06/24 06:14:42;;;;;;;10.23;9.23;;;30.20;89.60;;;;;;4983400;28;20564;-72
2023/06/24 06:17:09;;;;;;;14.30;8.63;;;30.50;86.90;;;;;;4981803;28;20879;-72
2023/06/24 06:19:36;;;;;;;9.97;8.27;;;30.80;86.30;;;;;;4983302;28;20533;-74
2023/06/24 06:22:04;;;;;;;10.97;8.63;;;30.90;85.50;;;;;;4986957;28;20445;-72
2023/06/24 06:24:31;;;;;;;10.03;7.40;;;30.50;85.10;;;;;;4983141;28;21334;-71
2023/06/24 06:26:59;;;;;;;10.87;6.93;;;30.60;85.60;;;;;;4982084;28;20530;-73
2023/06/24 06:29:26;;;;;;;9.23;8.10;;;31.10;85.00;;;;;;4987141;28;20445;-73
2023/06/24 06:31:55;;;;;;;10.10;8.73;;;31.00;82.20;;;;;;4985630;28;20467;-71
2023/06/24 06:34:21;;;;;;;8.23;7.40;;;30.70;82.70;;;;;;4986968;28;20829;-73
2023/06/24 06:36:48;;;;;;;7.77;6.90;;;31.00;82.90;;;;;;4984371;28;20604;-72
2023/06/24 06:39:17;;;;;;;12.33;8.77;;;31.30;82.60;;;;;;4983902;28;20441;-72
2023/06/24 06:41:43;;;;;;;11.37;7.70;;;31.80;81.10;;;;;;4983099;28;20956;-73
2023/06/24 06:44:10;;;;;;;8.93;8.03;;;31.90;80.70;;;;;;4983924;28;20911;-73
2023/06/24 06:46:37;;;;;;;13.60;9.10;;;31.40;79.40;;;;;;4986586;28;20485;-73
2023/06/24 06:49:04;;;;;;;12.30;8.57;;;31.40;80.80;;;;;;4980515;28;20537;-72
2023/06/24 06:51:31;;;;;;;10.13;6.63;;;31.50;80.90;;;;;;4982514;28;20533;-72
2023/06/24 06:53:58;;;;;;;8.37;7.50;;;31.80;80.30;;;;;;4984249;28;20516;-73
2023/06/24 06:56:26;;;;;;;7.73;7.00;;;32.10;80.00;;;;;;4988431;28;20484;-74
2023/06/24 06:58:54;;;;;;;7.10;6.40;;;32.50;78.20;;;;;;4986505;28;20456;-72
2023/06/24 07:01:21;;;;;;;7.50;6.80;;;32.40;77.20;;;;;;4983547;28;20509;-72
2023/06/24 07:03:49;;;;;;;8.27;6.80;;;32.40;77.30;;;;;;4982920;28;20968;-71
2023/06/24 07:06:18;;;;;;;8.37;7.53;;;32.50;76.90;;;;;;4986003;28;20541;-73
2023/06/24 07:08:45;;;;;;;7.80;7.10;;;33.20;76.60;;;;;;4982638;28;20450;-74
2023/06/24 07:11:12;;;;;;;8.33;5.70;;;32.80;75.10;;;;;;4975291;28;20446;-73
2023/06/24 07:13:40;;;;;;;8.43;7.43;;;33.00;75.10;;;;;;4979403;28;21039;-72
2023/06/24 07:16:07;;;;;;;7.83;6.50;;;32.90;74.10;;;;;;4980972;28;20442;-71
2023/06/24 07:18:34;;;;;;;9.77;6.23;;;32.90;74.90;;;;;;4982646;28;20445;-72
2023/06/24 07:21:02;;;;;;;8.23;5.97;;;33.20;74.00;;;;;;4983819;28;20875;-72
2023/06/24 07:23:28;;;;;;;9.10;6.07;;;32.60;74.70;;;;;;4979179;28;20475;-70
2023/06/24 07:25:55;;;;;;;10.23;5.83;;;33.00;75.00;;;;;;4985654;28;20527;-72
2023/06/24 07:28:22;;;;;;;8.30;5.77;;;32.90;74.10;;;;;;4982299;28;20457;-73
2023/06/24 07:30:50;;;;;;;5.93;5.33;;;33.40;72.30;;;;;;4983356;28;20452;-73
2023/06/24 07:33:17;;;;;;;7.67;5.37;;;33.20;72.70;;;;;;4981963;28;20476;-72
2023/06/24 07:35:44;;;;;;;8.00;6.40;;;33.30;72.30;;;;;;4980759;28;20458;-71
2023/06/24 07:38:12;;;;;;;8.73;6.23;;;33.60;72.20;;;;;;4978956;28;20508;-71
2023/06/24 07:40:39;;;;;;;7.43;6.70;;;33.30;72.70;;;;;;4980933;28;20528;-71
2023/06/24 07:43:06;;;;;;;7.63;6.80;;;33.40;72.70;;;;;;4976893;28;20471;-72
2023/06/24 07:45:32;;;;;;;7.93;6.47;;;33.10;72.80;;;;;;4983432;28;20924;-72
2023/06/24 07:48:01;;;;;;;9.53;7.07;;;32.30;73.50;;;;;;4981577;28;20448;-73
2023/06/24 07:50:27;;;;;;;7.83;6.90;;;32.50;74.40;;;;;;4981909;28;20453;-70
2023/06/24 07:52:54;;;;;;;6.10;5.50;;;32.80;73.90;;;;;;4980639;28;20568;-74
2023/06/24 07:55:21;;;;;;;9.00;7.80;;;33.10;74.20;;;;;;4985466;28;20607;-73
2023/06/24 07:57:48;;;;;;;7.40;6.70;;;32.80;73.40;;;;;;4984357;28;20472;-70
2023/06/24 08:00:16;;;;;;;6.93;6.20;;;32.90;73.10;;;;;;4987050;28;20437;-72
2023/06/24 08:02:43;;;;;;;7.13;6.37;;;32.50;71.90;;;;;;4983310;28;20478;-74
2023/06/24 08:05:12;;;;;;;8.60;7.30;;;32.60;73.90;;;;;;4982110;28;20441;-71
2023/06/24 08:07:39;;;;;;;8.90;7.50;;;33.20;72.90;;;;;;4984581;28;20448;-73
2023/06/24 08:10:06;;;;;;;7.10;6.50;;;33.10;73.30;;;;;;4983498;28;20444;-73
2023/06/24 08:12:33;;;;;;;7.77;6.97;;;33.80;71.10;;;;;;4980273;28;20473;-73
2023/06/24 08:15:00;;;;;;;7.07;6.37;;;34.40;70.30;;;;;;4983551;28;20477;-72
2023/06/24 08:17:27;;;;;;;6.17;5.67;;;34.30;69.10;;;;;;4979341;28;20506;-73
2023/06/24 08:19:54;;;;;;;8.77;6.73;;;34.20;68.80;;;;;;4982142;28;20456;-73
2023/06/24 08:22:23;;;;;;;6.40;5.90;;;34.70;70.00;;;;;;4979146;28;20448;-74
2023/06/24 08:24:50;;;;;;;10.33;7.37;;;34.40;67.80;;;;;;4980228;28;20456;-72
2023/06/24 08:27:17;;;;;;;5.00;4.50;;;34.00;68.20;;;;;;4987006;28;20438;-71
2023/06/24 08:29:44;;;;;;;8.60;5.50;;;34.10;68.70;;;;;;4989725;28;20487;-70
2023/06/24 08:32:10;;;;;;;11.07;7.40;;;34.00;68.80;;;;;;4991000;28;20508;-71
2023/06/24 08:34:37;;;;;;;6.30;5.70;;;33.70;66.80;;;;;;4984832;28;20486;-71
2023/06/24 08:37:05;;;;;;;9.27;8.27;;;33.80;68.70;;;;;;4993654;28;20476;-72
2023/06/24 08:39:33;;;;;;;7.30;6.60;;;34.00;68.90;;;;;;4989715;28;20477;-73
2023/06/24 08:42:00;;;;;;;8.90;6.80;;;33.50;67.70;;;;;;4982022;28;20459;-73
2023/06/24 08:44:27;;;;;;;9.20;7.33;;;32.60;69.60;;;;;;4979414;28;20469;-72
2023/06/24 08:46:54;;;;;;;6.57;5.97;;;32.50;70.70;;;;;;4982856;28;20941;-71
2023/06/24 08:49:29;;;;;;;7.60;5.87;;;32.30;71.90;;;;;;4979985;28;20445;-72
2023/06/24 08:52:01;;;;;;;8.93;7.03;;;31.80;71.50;;;;;;4984841;28;20487;-72
2023/06/24 08:54:29;;;;;;;5.73;5.23;;;32.10;73.30;;;;;;4983888;28;20492;-71
2023/06/24 08:56:57;;;;;;;7.00;6.30;;;32.10;71.80;;;;;;4977707;28;20540;-72
2023/06/24 08:59:24;;;;;;;6.27;5.67;;;32.40;70.70;;;;;;4982827;28;20446;-73
2023/06/24 09:01:51;;;;;;;5.70;5.07;;;32.80;70.70;;;;;;4982622;28;20452;-72
2023/06/24 09:04:18;;;;;;;4.80;4.40;;;33.30;68.90;;;;;;4985970;28;20560;-72
2023/06/24 09:06:45;;;;;;;6.37;5.30;;;33.60;68.80;;;;;;4984235;28;20441;-72
2023/06/24 09:09:19;;;;;;;6.90;5.10;;;33.70;69.00;;;;;;4984569;28;20799;-73
2023/06/24 09:11:53;;;;;;;5.30;4.80;;;33.90;68.10;;;;;;4977043;28;20555;-72
2023/06/24 09:14:21;;;;;;;6.40;5.80;;;34.10;67.70;;;;;;4982643;28;20490;-71
2023/06/24 09:16:56;;;;;;;4.60;4.20;;;34.20;66.60;;;;;;4987026;28;20882;-71
2023/06/24 09:19:23;;;;;;;8.77;5.30;;;33.90;65.20;;;;;;4977896;28;20864;-72
2023/06/24 09:21:52;;;;;;;5.70;5.10;;;33.30;66.10;;;;;;4983460;28;20479;-71
2023/06/24 09:24:19;;;;;;;8.27;6.60;;;33.10;68.20;;;;;;4978098;28;20524;-71
2023/06/24 09:26:46;;;;;;;6.90;5.97;;;33.20;69.20;;;;;;4987183;28;20456;-72
2023/06/24 09:29:14;;;;;;;5.90;5.30;;;33.10;69.10;;;;;;4981658;28;20461;-72
2023/06/24 09:31:54;;;;;;;7.03;5.70;;;33.10;68.30;;;;;;4983592;28;20457;-72
2023/06/24 09:34:21;;;;;;;5.60;5.10;;;33.30;67.40;;;;;;4976845;28;20532;-73
2023/06/24 09:36:52;;;;;;;5.57;5.03;;;33.90;67.50;;;;;;4981022;28;20449;-72
2023/06/24 09:39:21;;;;;;;6.27;4.63;;;33.90;66.10;;;;;;4975274;28;20454;-73
2023/06/24 09:41:50;;;;;;;5.23;4.53;;;34.00;67.20;;;;;;4985892;28;20464;-72
2023/06/24 09:44:19;;;;;;;5.50;4.40;;;34.20;66.30;;;;;;4987875;28;20469;-72
2023/06/24 09:46:46;;;;;;;6.37;5.17;;;33.70;64.30;;;;;;4986575;28;20448;-71
2023/06/24 09:49:15;;;;;;;5.63;5.07;;;33.70;66.00;;;;;;4983409;28;20475;-73
2023/06/24 09:51:46;;;;;;;6.77;4.73;;;32.80;65.30;;;;;;4984573;28;20501;-73
2023/06/24 09:54:14;;;;;;;5.37;4.33;;;32.70;66.70;;;;;;4975269;28;21000;-73
2023/06/24 09:56:44;;;;;;;7.37;5.10;;;32.30;67.10;;;;;;4982183;28;20963;-73
2023/06/24 09:59:13;;;;;;;5.00;4.10;;;32.40;66.90;;;;;;4981727;28;20444;-72
2023/06/24 10:01:41;;;;;;;7.03;4.87;;;32.30;68.30;;;;;;4980864;28;20532;-73
2023/06/24 10:04:09;;;;;;;7.00;4.87;;;32.60;68.90;;;;;;4981965;28;20461;-72
2023/06/24 10:06:37;;;;;;;5.07;4.17;;;32.90;66.10;;;;;;4978978;28;20836;-73
2023/06/24 10:09:05;;;;;;;7.47;5.60;;;32.90;66.40;;;;;;4982048;28;20527;-73
2023/06/24 10:11:33;;;;;;;5.57;4.43;;;33.20;66.40;;;;;;4983524;28;20940;-72
2023/06/24 10:14:00;;;;;;;5.70;4.67;;;33.10;65.70;;;;;;4987335;28;20496;-73
2023/06/24 10:16:27;;;;;;;8.10;4.90;;;33.30;67.10;;;;;;4981056;28;20496;-72
2023/06/24 10:19:01;;;;;;;6.50;5.00;;;32.80;66.40;;;;;;4985905;28;20488;-72
2023/06/24 10:21:48;;;;;;;7.60;5.40;;;32.60;67.80;;;;;;4980873;28;20793;-73
2023/06/24 10:24:32;;;;;;;6.00;5.17;;;32.60;68.90;;;;;;4980464;28;20460;-73
2023/06/24 10:27:08;;;;;;;6.00;4.93;;;32.40;68.50;;;;;;4992134;28;20509;-72
2023/06/24 10:29:36;;;;;;;7.40;5.13;;;32.30;69.40;;;;;;4980715;28;20958;-72
2023/06/24 10:32:07;;;;;;;8.53;5.60;;;32.00;69.70;;;;;;4984285;28;20465;-73
2023/06/24 10:34:41;;;;;;;5.03;4.50;;;31.60;70.00;;;;;;4978781;28;20485;-74
2023/06/24 10:37:14;;;;;;;7.00;5.67;;;32.00;71.70;;;;;;4977611;28;20529;-73
2023/06/24 10:39:48;;;;;;;5.50;4.73;;;32.00;71.10;;;;;;4984190;28;20458;-73
2023/06/24 10:42:28;;;;;;;9.77;5.17;;;31.90;70.70;;;;;;4981198;28;20481;-73
2023/06/24 10:44:56;;;;;;;7.97;5.80;;;31.90;70.50;;;;;;4986302;28;20464;-71
2023/06/24 10:47:24;;;;;;;5.77;5.27;;;31.40;72.10;;;;;;4978115;28;20785;-73
2023/06/24 10:49:52;;;;;;;6.40;5.80;;;30.40;73.00;;;;;;4979859;28;20854;-74
2023/06/24 10:52:22;;;;;;;8.17;6.17;;;30.20;75.10;;;;;;4979370;28;20485;-74
2023/06/24 10:54:50;;;;;;;5.80;5.30;;;30.20;76.00;;;;;;4978403;28;20482;-73
2023/06/24 10:57:22;;;;;;;8.03;7.23;;;30.00;76.20;;;;;;4982652;28;20928;-72
2023/06/24 10:59:49;;;;;;;9.70;6.50;;;30.00;75.50;;;;;;4984747;28;20449;-74
2023/06/24 11:02:18;;;;;;;8.87;6.30;;;30.00;76.60;;;;;;4980637;28;20452;-72
2023/06/24 11:04:45;;;;;;;7.30;6.60;;;29.90;78.20;;;;;;4979874;28;20441;-72
2023/06/24 11:07:12;;;;;;;8.17;6.77;;;29.90;77.80;;;;;;4983348;28;20449;-72
2023/06/24 11:09:42;;;;;;;11.03;6.47;;;29.70;76.60;;;;;;4982373;28;20501;-73
2023/06/24 11:12:11;;;;;;;8.30;6.97;;;29.50;77.90;;;;;;4971186;28;20457;-73
2023/06/24 11:14:39;;;;;;;8.83;7.93;;;29.20;80.10;;;;;;4983846;28;20475;-73
2023/06/24 11:17:06;;;;;;;8.23;6.27;;;29.40;80.00;;;;;;4982602;28;20489;-73
2023/06/24 11:19:35;;;;;;;8.83;7.93;;;29.60;79.40;;;;;;4985730;28;20441;-74
2023/06/24 11:22:03;;;;;;;10.67;7.63;;;29.80;78.50;;;;;;4974981;28;20446;-73
2023/06/24 11:24:30;;;;;;;9.87;7.00;;;29.80;78.50;;;;;;4979554;28;20549;-72
2023/06/24 11:26:59;;;;;;;8.17;7.03;;;29.70;78.30;;;;;;4977165;28;20453;-72
2023/06/24 11:29:30;;;;;;;10.70;6.63;;;29.70;77.40;;;;;;4975588;28;20540;-72
2023/06/24 11:31:57;;;;;;;8.40;6.83;;;29.50;78.20;;;;;;4979165;28;20445;-72
2023/06/24 11:34:24;;;;;;;8.60;7.20;;;29.40;78.20;;;;;;4981190;28;20492;-73
2023/06/24 11:36:51;;;;;;;10.63;9.33;;;29.30;78.40;;;;;;4976145;28;21029;-72
2023/06/24 11:39:25;;;;;;;8.70;7.03;;;29.00;80.00;;;;;;4977950;28;20500;-73
2023/06/24 11:41:52;;;;;;;7.40;6.73;;;29.20;81.10;;;;;;4983275;28;20448;-73
2023/06/24 11:44:21;;;;;;;6.43;5.63;;;29.00;78.70;;;;;;4984816;28;20461;-71
2023/06/24 11:46:49;;;;;;;6.60;6.00;;;28.90;78.20;;;;;;4984889;28;20851;-71
2023/06/24 11:49:16;;;;;;;6.23;5.63;;;29.20;77.00;;;;;;4992571;28;20459;-72
2023/06/24 11:51:48;;;;;;;6.80;5.77;;;29.60;76.20;;;;;;4990606;28;20449;-74
2023/06/24 11:54:17;;;;;;;5.40;5.00;;;29.60;75.60;;;;;;4985614;28;20462;-72
2023/06/24 11:56:50;;;;;;;9.53;6.77;;;29.60;74.60;;;;;;4985242;28;20536;-73
2023/06/24 11:59:18;;;;;;;7.67;6.90;;;28.90;75.80;;;;;;4980624;28;20449;-72
2023/06/24 12:01:52;;;;;;;6.80;6.10;;;29.00;76.30;;;;;;4985729;28;20453;-71
2023/06/24 12:04:19;;;;;;;7.07;6.10;;;29.10;77.30;;;;;;4979320;28;20462;-72
2023/06/24 12:06:47;;;;;;;6.83;5.53;;;29.40;77.00;;;;;;4981453;28;20495;-73
2023/06/24 12:09:15;;;;;;;7.77;6.97;;;29.40;76.80;;;;;;4980217;28;20452;-73
2023/06/24 12:11:42;;;;;;;10.97;6.03;;;29.40;76.60;;;;;;4981880;28;20456;-74
2023/06/24 12:14:11;;;;;;;9.23;6.17;;;29.40;76.60;;;;;;4978608;28;20466;-72
2023/06/24 12:16:39;;;;;;;9.20;6.73;;;29.50;77.30;;;;;;4973883;28;20482;-71
2023/06/24 12:19:07;;;;;;;7.43;6.30;;;29.60;76.90;;;;;;4976317;28;20950;-74
2023/06/24 12:21:35;;;;;;;7.30;6.60;;;29.60;77.20;;;;;;4975681;28;20443;-72
2023/06/24 12:24:02;;;;;;;6.77;6.00;;;29.20;76.80;;;;;;4984166;28;20469;-74
2023/06/24 12:26:29;;;;;;;7.97;7.20;;;29.30;77.80;;;;;;4972496;28;20461;-73
2023/06/24 12:28:56;;;;;;;7.57;6.00;;;29.50;76.50;;;;;;4992485;28;20509;-73
2023/06/24 12:31:23;;;;;;;8.20;6.90;;;29.80;76.30;;;;;;4984839;28;20434;-74
2023/06/24 12:33:51;;;;;;;8.07;6.87;;;29.90;76.00;;;;;;4975715;28;20471;-73
2023/06/24 12:36:19;;;;;;;6.40;5.80;;;30.00;75.20;;;;;;4979866;28;20601;-72
2023/06/24 12:38:47;;;;;;;6.97;6.17;;;30.00;75.70;;;;;;4976512;28;20460;-73
2023/06/24 12:41:14;;;;;;;6.00;5.50;;;30.10;75.50;;;;;;4979141;28;20449;-72
2023/06/24 12:43:41;;;;;;;7.07;6.37;;;30.20;75.40;;;;;;4982704;28;20472;-72